Aérodrome :
LOGIN :

S'inscrire | Disclaimer

   EN    FR    IT 

 










Légende :    VFR   VFR Marginal   IFR   IFR Intensif   IFR Très Intensif
Visi : 
Plafond : 
>= 8 km
>= 3000ft
5 à 8 km
1000 à 3000 ft
1500m à 5 km
500 à 1000 ft
800 à 1500m
200 à 500 ft
< 800m
< 200 ft
Symboles :   Orages  Brouillard  Fortes neiges  Fortes précipitations  Vent > 20 kt
SIGMETs :   Divers  Orages  Givrage  Turbulence  Onde Orograph.  Cendres Volcan.







- Altitude de l'aérodrome : 485 ft
- Code IATA : QSA


LELL - Sabadell

DERNIER METAR :
  • 220030Z AUTO 28001KT 9999 NCD 21/19 Q1013

METARs EXPIRÉS :
  • 220000Z AUTO 30001KT 9999 NCD 22/19 Q1013
  • 212330Z AUTO 25001KT 9999 NCD 22/20 Q1014
  • 212300Z AUTO 28003KT 9999 NCD 22/20 Q1013
  • 212230Z AUTO 28002KT 9999 NCD 22/20 Q1013
  • 212200Z AUTO VRB01KT 9999 NCD 24/20 Q1013
  • 212130Z AUTO 00000KT 9999 NCD 24/20 Q1013

TAF TAF LELL
Valide du 21 à 15h jusqu'au 22 à 15h UTC


211400Z 2115/2215 VRB04KT 9999 FEW025 TX32/2213Z TN20/2205Z
TEMPO 2115/2118 16009KT
BECMG 2210/2212 14008KT
Pas de NOTAMs connus pour ce terrain.



MET'MAP, la Météo Aéronautique d'un coup d'oeil ! - Copyright ORBIFLY Décembre 2007 - Disclaimer

ORBIFLY MET'MAP TEAM :

Programmation & Développement : Alexandra Zaïnal
Conception & Développement : Baudouin d'Aumeries
Co-Programmation & Développement : Marc-Olivier Méhu
Soutien technique & logistique : Manuel Goepfert

Contact : metmap@orbifly.com




SOURCES & CREDITS :

   NOAA